sensor_id;sensor_type;location;lat;lon;timestamp;P1;durP1;ratioP1;P2;durP2;ratioP2
32198;SDS011;19221;42.656;21.156;2023-06-10T00:01:01;13.80;;;6.03;;
32198;SDS011;19221;42.656;21.156;2023-06-10T00:03:26;9.18;;;5.72;;
32198;SDS011;19221;42.656;21.156;2023-06-10T00:05:52;9.77;;;6.40;;
32198;SDS011;19221;42.656;21.156;2023-06-10T00:08:18;9.73;;;6.47;;
32198;SDS011;19221;42.656;21.156;2023-06-10T00:10:45;9.90;;;6.38;;
32198;SDS011;19221;42.656;21.156;2023-06-10T00:13:10;13.77;;;6.07;;
32198;SDS011;19221;42.656;21.156;2023-06-10T00:15:37;11.48;;;6.45;;
32198;SDS011;19221;42.656;21.156;2023-06-10T00:18:03;9.38;;;6.30;;
32198;SDS011;19221;42.656;21.156;2023-06-10T00:20:30;9.50;;;5.90;;
32198;SDS011;19221;42.656;21.156;2023-06-10T00:22:56;12.68;;;6.30;;
32198;SDS011;19221;42.656;21.156;2023-06-10T00:25:22;13.95;;;6.38;;
32198;SDS011;19221;42.656;21.156;2023-06-10T00:27:48;9.55;;;5.63;;
32198;SDS011;19221;42.656;21.156;2023-06-10T00:30:14;10.25;;;6.18;;
32198;SDS011;19221;42.656;21.156;2023-06-10T00:32:39;10.13;;;5.88;;
32198;SDS011;19221;42.656;21.156;2023-06-10T00:35:05;14.63;;;6.68;;
32198;SDS011;19221;42.656;21.156;2023-06-10T00:37:32;13.02;;;6.25;;
32198;SDS011;19221;42.656;21.156;2023-06-10T00:39:57;9.60;;;6.38;;
32198;SDS011;19221;42.656;21.156;2023-06-10T00:42:23;12.13;;;6.80;;
32198;SDS011;19221;42.656;21.156;2023-06-10T00:44:53;10.70;;;6.63;;
32198;SDS011;19221;42.656;21.156;2023-06-10T00:47:19;11.60;;;6.88;;
32198;SDS011;19221;42.656;21.156;2023-06-10T00:49:45;14.38;;;6.82;;
32198;SDS011;19221;42.656;21.156;2023-06-10T00:52:11;13.20;;;6.90;;
32198;SDS011;19221;42.656;21.156;2023-06-10T00:54:37;13.40;;;6.65;;
32198;SDS011;19221;42.656;21.156;2023-06-10T00:57:04;12.93;;;6.43;;
32198;SDS011;19221;42.656;21.156;2023-06-10T00:59:29;16.67;;;10.02;;
32198;SDS011;19221;42.656;21.156;2023-06-10T01:01:58;13.77;;;6.80;;
32198;SDS011;19221;42.656;21.156;2023-06-10T01:04:24;13.20;;;6.70;;
32198;SDS011;19221;42.656;21.156;2023-06-10T01:06:54;9.73;;;6.63;;
32198;SDS011;19221;42.656;21.156;2023-06-10T01:11:58;13.40;;;6.53;;
32198;SDS011;19221;42.656;21.156;2023-06-10T01:14:26;10.52;;;7.13;;
32198;SDS011;19221;42.656;21.156;2023-06-10T01:16:52;11.85;;;6.43;;
32198;SDS011;19221;42.656;21.156;2023-06-10T01:19:18;9.93;;;6.30;;
32198;SDS011;19221;42.656;21.156;2023-06-10T01:21:44;12.32;;;6.20;;
32198;SDS011;19221;42.656;21.156;2023-06-10T01:24:16;13.07;;;7.07;;
32198;SDS011;19221;42.656;21.156;2023-06-10T01:26:45;8.52;;;6.00;;
32198;SDS011;19221;42.656;21.156;2023-06-10T01:31:42;13.40;;;6.65;;
32198;SDS011;19221;42.656;21.156;2023-06-10T01:34:10;12.63;;;6.25;;
32198;SDS011;19221;42.656;21.156;2023-06-10T01:36:36;10.40;;;6.13;;
32198;SDS011;19221;42.656;21.156;2023-06-10T01:39:03;11.27;;;6.78;;
32198;SDS011;19221;42.656;21.156;2023-06-10T01:41:30;12.23;;;6.88;;
32198;SDS011;19221;42.656;21.156;2023-06-10T01:43:56;18.25;;;6.72;;
32198;SDS011;19221;42.656;21.156;2023-06-10T01:46:22;13.60;;;6.85;;
32198;SDS011;19221;42.656;21.156;2023-06-10T01:48:48;14.07;;;6.93;;
32198;SDS011;19221;42.656;21.156;2023-06-10T01:51:14;12.50;;;6.93;;
32198;SDS011;19221;42.656;21.156;2023-06-10T01:53:39;14.18;;;6.47;;
32198;SDS011;19221;42.656;21.156;2023-06-10T01:56:05;8.45;;;6.25;;
32198;SDS011;19221;42.656;21.156;2023-06-10T01:58:31;11.40;;;6.22;;
32198;SDS011;19221;42.656;21.156;2023-06-10T02:00:56;8.38;;;5.63;;
32198;SDS011;19221;42.656;21.156;2023-06-10T02:03:22;12.40;;;6.43;;
32198;SDS011;19221;42.656;21.156;2023-06-10T02:05:48;11.45;;;5.97;;
32198;SDS011;19221;42.656;21.156;2023-06-10T02:08:14;14.27;;;5.85;;
32198;SDS011;19221;42.656;21.156;2023-06-10T02:10:40;12.77;;;7.57;;
32198;SDS011;19221;42.656;21.156;2023-06-10T02:13:06;11.30;;;6.35;;
32198;SDS011;19221;42.656;21.156;2023-06-10T02:15:32;10.38;;;5.95;;
32198;SDS011;19221;42.656;21.156;2023-06-10T02:17:59;9.48;;;6.07;;
32198;SDS011;19221;42.656;21.156;2023-06-10T02:20:24;9.40;;;6.15;;
32198;SDS011;19221;42.656;21.156;2023-06-10T02:22:50;7.43;;;5.18;;
32198;SDS011;19221;42.656;21.156;2023-06-10T02:25:16;9.07;;;5.22;;
32198;SDS011;19221;42.656;21.156;2023-06-10T02:27:42;13.32;;;7.40;;
32198;SDS011;19221;42.656;21.156;2023-06-10T02:30:07;7.90;;;5.30;;
32198;SDS011;19221;42.656;21.156;2023-06-10T02:32:35;7.38;;;4.38;;
32198;SDS011;19221;42.656;21.156;2023-06-10T02:35:01;16.58;;;5.38;;
32198;SDS011;19221;42.656;21.156;2023-06-10T02:37:26;6.95;;;4.90;;
32198;SDS011;19221;42.656;21.156;2023-06-10T02:39:52;7.53;;;5.25;;
32198;SDS011;19221;42.656;21.156;2023-06-10T02:42:18;7.28;;;5.22;;
32198;SDS011;19221;42.656;21.156;2023-06-10T02:44:43;10.63;;;5.40;;
32198;SDS011;19221;42.656;21.156;2023-06-10T02:47:09;7.60;;;5.13;;
32198;SDS011;19221;42.656;21.156;2023-06-10T02:49:35;8.60;;;6.68;;
32198;SDS011;19221;42.656;21.156;2023-06-10T02:52:01;13.55;;;6.43;;
32198;SDS011;19221;42.656;21.156;2023-06-10T02:54:26;8.77;;;5.60;;
32198;SDS011;19221;42.656;21.156;2023-06-10T02:56:52;8.13;;;5.93;;
32198;SDS011;19221;42.656;21.156;2023-06-10T02:59:21;7.55;;;5.32;;
32198;SDS011;19221;42.656;21.156;2023-06-10T03:01:47;7.63;;;5.80;;
32198;SDS011;19221;42.656;21.156;2023-06-10T03:04:12;10.65;;;5.90;;
32198;SDS011;19221;42.656;21.156;2023-06-10T03:06:40;9.70;;;5.97;;
32198;SDS011;19221;42.656;21.156;2023-06-10T03:09:09;9.93;;;6.00;;
32198;SDS011;19221;42.656;21.156;2023-06-10T03:11:35;14.73;;;8.10;;
32198;SDS011;19221;42.656;21.156;2023-06-10T03:14:01;21.10;;;10.65;;
32198;SDS011;19221;42.656;21.156;2023-06-10T03:16:27;22.33;;;12.52;;
32198;SDS011;19221;42.656;21.156;2023-06-10T03:18:53;26.35;;;13.82;;
32198;SDS011;19221;42.656;21.156;2023-06-10T03:21:19;29.17;;;15.80;;
32198;SDS011;19221;42.656;21.156;2023-06-10T03:23:45;32.72;;;17.10;;
32198;SDS011;19221;42.656;21.156;2023-06-10T03:26:11;36.75;;;17.58;;
32198;SDS011;19221;42.656;21.156;2023-06-10T03:28:37;29.80;;;17.10;;
32198;SDS011;19221;42.656;21.156;2023-06-10T03:31:03;18.45;;;10.38;;
32198;SDS011;19221;42.656;21.156;2023-06-10T03:33:29;12.10;;;7.45;;
32198;SDS011;19221;42.656;21.156;2023-06-10T03:35:55;12.60;;;7.90;;
32198;SDS011;19221;42.656;21.156;2023-06-10T03:38:21;9.27;;;5.35;;
32198;SDS011;19221;42.656;21.156;2023-06-10T03:40:47;9.50;;;5.75;;
32198;SDS011;19221;42.656;21.156;2023-06-10T03:43:12;11.10;;;5.30;;
32198;SDS011;19221;42.656;21.156;2023-06-10T03:45:38;8.18;;;5.40;;
32198;SDS011;19221;42.656;21.156;2023-06-10T03:48:04;6.75;;;4.82;;
32198;SDS011;19221;42.656;21.156;2023-06-10T03:50:29;8.02;;;5.75;;
32198;SDS011;19221;42.656;21.156;2023-06-10T03:52:55;6.75;;;5.03;;
32198;SDS011;19221;42.656;21.156;2023-06-10T03:55:21;6.93;;;5.32;;
32198;SDS011;19221;42.656;21.156;2023-06-10T03:57:49;5.88;;;4.78;;
32198;SDS011;19221;42.656;21.156;2023-06-10T04:00:15;9.85;;;5.75;;
32198;SDS011;19221;42.656;21.156;2023-06-10T04:02:41;8.35;;;5.35;;
32198;SDS011;19221;42.656;21.156;2023-06-10T04:05:18;10.57;;;4.97;;
32198;SDS011;19221;42.656;21.156;2023-06-10T04:07:44;9.35;;;5.07;;
32198;SDS011;19221;42.656;21.156;2023-06-10T04:10:10;12.65;;;4.85;;
32198;SDS011;19221;42.656;21.156;2023-06-10T04:12:36;8.35;;;5.20;;
32198;SDS011;19221;42.656;21.156;2023-06-10T04:15:02;5.47;;;4.85;;
32198;SDS011;19221;42.656;21.156;2023-06-10T04:17:28;7.97;;;4.50;;
32198;SDS011;19221;42.656;21.156;2023-06-10T04:19:53;9.27;;;5.15;;
32198;SDS011;19221;42.656;21.156;2023-06-10T04:22:20;8.10;;;4.80;;
32198;SDS011;19221;42.656;21.156;2023-06-10T04:24:46;6.70;;;4.30;;
32198;SDS011;19221;42.656;21.156;2023-06-10T04:27:11;10.13;;;4.70;;
32198;SDS011;19221;42.656;21.156;2023-06-10T04:29:37;12.10;;;4.72;;
32198;SDS011;19221;42.656;21.156;2023-06-10T04:32:03;7.13;;;4.70;;
32198;SDS011;19221;42.656;21.156;2023-06-10T04:34:30;7.78;;;4.72;;
32198;SDS011;19221;42.656;21.156;2023-06-10T04:36:56;9.77;;;5.20;;
32198;SDS011;19221;42.656;21.156;2023-06-10T04:39:22;7.63;;;4.75;;
32198;SDS011;19221;42.656;21.156;2023-06-10T04:41:48;7.03;;;4.97;;
32198;SDS011;19221;42.656;21.156;2023-06-10T04:44:13;7.60;;;5.25;;
32198;SDS011;19221;42.656;21.156;2023-06-10T04:46:39;6.55;;;4.72;;
32198;SDS011;19221;42.656;21.156;2023-06-10T04:49:04;7.65;;;5.13;;
32198;SDS011;19221;42.656;21.156;2023-06-10T04:51:30;6.50;;;4.57;;
32198;SDS011;19221;42.656;21.156;2023-06-10T04:53:57;9.43;;;5.43;;
32198;SDS011;19221;42.656;21.156;2023-06-10T04:56:23;11.48;;;6.05;;
32198;SDS011;19221;42.656;21.156;2023-06-10T04:58:49;9.30;;;5.63;;
32198;SDS011;19221;42.656;21.156;2023-06-10T05:01:15;12.35;;;5.97;;
32198;SDS011;19221;42.656;21.156;2023-06-10T05:03:41;12.48;;;5.70;;
32198;SDS011;19221;42.656;21.156;2023-06-10T05:06:06;10.73;;;5.85;;
32198;SDS011;19221;42.656;21.156;2023-06-10T05:08:33;8.65;;;6.28;;
32198;SDS011;19221;42.656;21.156;2023-06-10T05:10:58;11.82;;;6.13;;
32198;SDS011;19221;42.656;21.156;2023-06-10T05:13:24;11.90;;;7.00;;
32198;SDS011;19221;42.656;21.156;2023-06-10T05:15:50;10.30;;;6.25;;
32198;SDS011;19221;42.656;21.156;2023-06-10T05:18:15;10.10;;;7.15;;
32198;SDS011;19221;42.656;21.156;2023-06-10T05:20:41;10.65;;;7.55;;
32198;SDS011;19221;42.656;21.156;2023-06-10T05:23:07;15.50;;;7.60;;
32198;SDS011;19221;42.656;21.156;2023-06-10T05:25:32;11.07;;;7.00;;
32198;SDS011;19221;42.656;21.156;2023-06-10T05:27:58;11.60;;;6.65;;
32198;SDS011;19221;42.656;21.156;2023-06-10T05:30:24;9.70;;;6.60;;
32198;SDS011;19221;42.656;21.156;2023-06-10T05:32:51;9.30;;;6.78;;
32198;SDS011;19221;42.656;21.156;2023-06-10T05:35:17;13.25;;;6.85;;
32198;SDS011;19221;42.656;21.156;2023-06-10T05:37:42;12.73;;;6.18;;
32198;SDS011;19221;42.656;21.156;2023-06-10T05:40:09;9.65;;;6.28;;
32198;SDS011;19221;42.656;21.156;2023-06-10T05:42:35;12.63;;;6.32;;
32198;SDS011;19221;42.656;21.156;2023-06-10T05:45:00;9.55;;;6.85;;
32198;SDS011;19221;42.656;21.156;2023-06-10T05:47:26;12.60;;;7.03;;
32198;SDS011;19221;42.656;21.156;2023-06-10T05:49:52;14.13;;;6.55;;
32198;SDS011;19221;42.656;21.156;2023-06-10T05:52:17;10.75;;;6.60;;
32198;SDS011;19221;42.656;21.156;2023-06-10T05:54:43;11.32;;;6.30;;
32198;SDS011;19221;42.656;21.156;2023-06-10T05:57:09;9.52;;;5.45;;
32198;SDS011;19221;42.656;21.156;2023-06-10T05:59:35;9.77;;;5.30;;
32198;SDS011;19221;42.656;21.156;2023-06-10T06:02:01;7.75;;;4.90;;
32198;SDS011;19221;42.656;21.156;2023-06-10T06:04:27;11.07;;;5.25;;
32198;SDS011;19221;42.656;21.156;2023-06-10T06:06:52;8.65;;;5.40;;
32198;SDS011;19221;42.656;21.156;2023-06-10T06:09:18;8.02;;;5.22;;
32198;SDS011;19221;42.656;21.156;2023-06-10T06:11:43;13.35;;;6.20;;
32198;SDS011;19221;42.656;21.156;2023-06-10T06:14:09;8.63;;;6.18;;
32198;SDS011;19221;42.656;21.156;2023-06-10T06:16:35;14.55;;;6.88;;
32198;SDS011;19221;42.656;21.156;2023-06-10T06:19:01;9.95;;;6.07;;
32198;SDS011;19221;42.656;21.156;2023-06-10T06:21:26;18.92;;;6.80;;
32198;SDS011;19221;42.656;21.156;2023-06-10T06:23:52;12.85;;;6.10;;
32198;SDS011;19221;42.656;21.156;2023-06-10T06:26:17;10.95;;;6.00;;
32198;SDS011;19221;42.656;21.156;2023-06-10T06:28:43;12.25;;;6.55;;
32198;SDS011;19221;42.656;21.156;2023-06-10T06:31:09;14.25;;;6.47;;
32198;SDS011;19221;42.656;21.156;2023-06-10T06:33:35;9.05;;;5.40;;
32198;SDS011;19221;42.656;21.156;2023-06-10T06:36:00;14.18;;;6.35;;
32198;SDS011;19221;42.656;21.156;2023-06-10T06:38:26;8.32;;;5.20;;
32198;SDS011;19221;42.656;21.156;2023-06-10T06:40:52;7.05;;;4.82;;
32198;SDS011;19221;42.656;21.156;2023-06-10T06:43:17;12.35;;;4.70;;
32198;SDS011;19221;42.656;21.156;2023-06-10T06:45:44;8.52;;;4.80;;
32198;SDS011;19221;42.656;21.156;2023-06-10T06:48:10;9.07;;;6.07;;
32198;SDS011;19221;42.656;21.156;2023-06-10T06:50:36;9.23;;;5.60;;
32198;SDS011;19221;42.656;21.156;2023-06-10T06:53:02;7.95;;;5.60;;
32198;SDS011;19221;42.656;21.156;2023-06-10T06:55:28;10.70;;;6.53;;
32198;SDS011;19221;42.656;21.156;2023-06-10T06:57:54;13.88;;;5.88;;
32198;SDS011;19221;42.656;21.156;2023-06-10T07:00:19;10.15;;;5.57;;
32198;SDS011;19221;42.656;21.156;2023-06-10T07:02:45;10.13;;;5.50;;
32198;SDS011;19221;42.656;21.156;2023-06-10T07:05:11;12.00;;;5.38;;
32198;SDS011;19221;42.656;21.156;2023-06-10T07:07:36;11.15;;;5.63;;
32198;SDS011;19221;42.656;21.156;2023-06-10T07:10:02;5.95;;;4.15;;
32198;SDS011;19221;42.656;21.156;2023-06-10T07:12:28;5.63;;;4.70;;
32198;SDS011;19221;42.656;21.156;2023-06-10T07:14:53;7.93;;;5.20;;
32198;SDS011;19221;42.656;21.156;2023-06-10T07:17:19;6.50;;;3.92;;
32198;SDS011;19221;42.656;21.156;2023-06-10T07:19:45;10.23;;;4.60;;
32198;SDS011;19221;42.656;21.156;2023-06-10T07:22:11;6.63;;;4.53;;
32198;SDS011;19221;42.656;21.156;2023-06-10T07:24:37;5.63;;;4.18;;
32198;SDS011;19221;42.656;21.156;2023-06-10T07:27:02;7.25;;;4.43;;
32198;SDS011;19221;42.656;21.156;2023-06-10T07:29:28;8.50;;;4.68;;
32198;SDS011;19221;42.656;21.156;2023-06-10T07:31:54;11.25;;;5.65;;
32198;SDS011;19221;42.656;21.156;2023-06-10T07:34:19;8.20;;;4.68;;
32198;SDS011;19221;42.656;21.156;2023-06-10T07:36:45;6.88;;;5.03;;
32198;SDS011;19221;42.656;21.156;2023-06-10T07:39:11;8.38;;;5.78;;
32198;SDS011;19221;42.656;21.156;2023-06-10T07:41:36;10.65;;;5.60;;
32198;SDS011;19221;42.656;21.156;2023-06-10T07:44:02;7.32;;;5.30;;
32198;SDS011;19221;42.656;21.156;2023-06-10T07:46:28;14.05;;;7.13;;
32198;SDS011;19221;42.656;21.156;2023-06-10T07:48:54;7.90;;;6.07;;
32198;SDS011;19221;42.656;21.156;2023-06-10T07:51:19;12.07;;;6.00;;
32198;SDS011;19221;42.656;21.156;2023-06-10T07:53:45;13.70;;;6.93;;
32198;SDS011;19221;42.656;21.156;2023-06-10T07:56:11;7.55;;;6.15;;
32198;SDS011;19221;42.656;21.156;2023-06-10T07:58:37;12.48;;;6.72;;
32198;SDS011;19221;42.656;21.156;2023-06-10T08:01:02;7.78;;;6.60;;
32198;SDS011;19221;42.656;21.156;2023-06-10T08:03:28;9.13;;;6.68;;
32198;SDS011;19221;42.656;21.156;2023-06-10T08:05:54;9.15;;;7.13;;
32198;SDS011;19221;42.656;21.156;2023-06-10T08:08:19;8.90;;;6.82;;
32198;SDS011;19221;42.656;21.156;2023-06-10T08:10:45;8.00;;;6.40;;
32198;SDS011;19221;42.656;21.156;2023-06-10T08:13:11;8.93;;;6.18;;
32198;SDS011;19221;42.656;21.156;2023-06-10T08:15:36;9.10;;;6.00;;
32198;SDS011;19221;42.656;21.156;2023-06-10T08:18:02;9.98;;;6.70;;
32198;SDS011;19221;42.656;21.156;2023-06-10T08:20:27;10.25;;;6.80;;
32198;SDS011;19221;42.656;21.156;2023-06-10T08:22:53;10.35;;;7.20;;
32198;SDS011;19221;42.656;21.156;2023-06-10T08:25:19;8.50;;;6.05;;
32198;SDS011;19221;42.656;21.156;2023-06-10T08:27:46;8.57;;;6.53;;
32198;SDS011;19221;42.656;21.156;2023-06-10T08:30:12;8.95;;;6.43;;
32198;SDS011;19221;42.656;21.156;2023-06-10T08:32:38;8.77;;;6.13;;
32198;SDS011;19221;42.656;21.156;2023-06-10T08:35:04;9.90;;;7.15;;
32198;SDS011;19221;42.656;21.156;2023-06-10T08:37:30;9.98;;;6.95;;
32198;SDS011;19221;42.656;21.156;2023-06-10T08:39:56;13.20;;;7.00;;
32198;SDS011;19221;42.656;21.156;2023-06-10T08:42:25;10.55;;;6.50;;
32198;SDS011;19221;42.656;21.156;2023-06-10T08:44:54;9.05;;;6.95;;
32198;SDS011;19221;42.656;21.156;2023-06-10T08:47:24;11.83;;;7.70;;
32198;SDS011;19221;42.656;21.156;2023-06-10T08:49:50;13.80;;;7.72;;
32198;SDS011;19221;42.656;21.156;2023-06-10T08:52:19;8.80;;;7.07;;
32198;SDS011;19221;42.656;21.156;2023-06-10T08:54:56;28.58;;;9.20;;
32198;SDS011;19221;42.656;21.156;2023-06-10T08:57:22;9.48;;;7.22;;
32198;SDS011;19221;42.656;21.156;2023-06-10T08:59:48;11.95;;;7.90;;
32198;SDS011;19221;42.656;21.156;2023-06-10T09:02:15;9.93;;;7.55;;
32198;SDS011;19221;42.656;21.156;2023-06-10T09:04:42;11.80;;;8.32;;
32198;SDS011;19221;42.656;21.156;2023-06-10T09:07:08;9.27;;;8.25;;
32198;SDS011;19221;42.656;21.156;2023-06-10T09:09:33;8.75;;;7.70;;
32198;SDS011;19221;42.656;21.156;2023-06-10T09:12:00;11.10;;;8.50;;
32198;SDS011;19221;42.656;21.156;2023-06-10T09:14:25;13.00;;;8.82;;
32198;SDS011;19221;42.656;21.156;2023-06-10T09:16:52;11.50;;;9.38;;
32198;SDS011;19221;42.656;21.156;2023-06-10T09:19:22;11.25;;;8.90;;
32198;SDS011;19221;42.656;21.156;2023-06-10T09:21:48;11.77;;;10.05;;
32198;SDS011;19221;42.656;21.156;2023-06-10T09:24:14;20.85;;;12.20;;
32198;SDS011;19221;42.656;21.156;2023-06-10T09:26:40;13.63;;;10.77;;
32198;SDS011;19221;42.656;21.156;2023-06-10T09:29:06;18.73;;;9.18;;
32198;SDS011;19221;42.656;21.156;2023-06-10T09:31:36;14.75;;;8.75;;
32198;SDS011;19221;42.656;21.156;2023-06-10T09:34:08;12.77;;;9.52;;
32198;SDS011;19221;42.656;21.156;2023-06-10T09:36:35;14.35;;;8.98;;
32198;SDS011;19221;42.656;21.156;2023-06-10T09:39:01;10.40;;;9.25;;
32198;SDS011;19221;42.656;21.156;2023-06-10T09:41:33;9.68;;;7.72;;
32198;SDS011;19221;42.656;21.156;2023-06-10T09:44:00;10.50;;;7.72;;
32198;SDS011;19221;42.656;21.156;2023-06-10T09:46:25;10.43;;;7.97;;
32198;SDS011;19221;42.656;21.156;2023-06-10T09:48:55;12.23;;;10.27;;
32198;SDS011;19221;42.656;21.156;2023-06-10T09:51:22;12.95;;;10.32;;
32198;SDS011;19221;42.656;21.156;2023-06-10T09:53:51;16.90;;;11.18;;
32198;SDS011;19221;42.656;21.156;2023-06-10T09:56:17;14.95;;;11.02;;
32198;SDS011;19221;42.656;21.156;2023-06-10T09:58:44;13.85;;;10.95;;
32198;SDS011;19221;42.656;21.156;2023-06-10T10:01:11;14.70;;;10.77;;
32198;SDS011;19221;42.656;21.156;2023-06-10T10:03:47;15.48;;;12.38;;
32198;SDS011;19221;42.656;21.156;2023-06-10T10:06:14;15.73;;;13.50;;
32198;SDS011;19221;42.656;21.156;2023-06-10T10:08:40;16.65;;;13.30;;
32198;SDS011;19221;42.656;21.156;2023-06-10T10:11:05;19.23;;;14.93;;
32198;SDS011;19221;42.656;21.156;2023-06-10T10:13:34;20.15;;;14.10;;
32198;SDS011;19221;42.656;21.156;2023-06-10T10:16:09;18.10;;;13.52;;
32198;SDS011;19221;42.656;21.156;2023-06-10T10:18:38;17.42;;;12.68;;
32198;SDS011;19221;42.656;21.156;2023-06-10T10:21:05;20.00;;;13.93;;
32198;SDS011;19221;42.656;21.156;2023-06-10T10:23:36;13.30;;;11.68;;
32198;SDS011;19221;42.656;21.156;2023-06-10T10:26:04;13.48;;;11.10;;
32198;SDS011;19221;42.656;21.156;2023-06-10T10:28:41;14.88;;;10.90;;
32198;SDS011;19221;42.656;21.156;2023-06-10T10:31:10;10.73;;;9.48;;
32198;SDS011;19221;42.656;21.156;2023-06-10T10:36:06;13.00;;;10.25;;
32198;SDS011;19221;42.656;21.156;2023-06-10T10:38:33;10.88;;;8.80;;
32198;SDS011;19221;42.656;21.156;2023-06-10T10:40:58;9.73;;;7.80;;
32198;SDS011;19221;42.656;21.156;2023-06-10T10:43:25;12.48;;;8.40;;
32198;SDS011;19221;42.656;21.156;2023-06-10T10:46:00;9.80;;;8.48;;
32198;SDS011;19221;42.656;21.156;2023-06-10T10:48:26;8.27;;;6.93;;
32198;SDS011;19221;42.656;21.156;2023-06-10T10:50:57;7.38;;;6.68;;
32198;SDS011;19221;42.656;21.156;2023-06-10T10:53:24;8.65;;;7.75;;
32198;SDS011;19221;42.656;21.156;2023-06-10T10:56:06;8.50;;;7.20;;
32198;SDS011;19221;42.656;21.156;2023-06-10T10:58:33;7.78;;;6.70;;
32198;SDS011;19221;42.656;21.156;2023-06-10T11:00:58;8.88;;;6.68;;
32198;SDS011;19221;42.656;21.156;2023-06-10T11:03:27;8.20;;;6.82;;
32198;SDS011;19221;42.656;21.156;2023-06-10T11:05:53;8.63;;;7.32;;
32198;SDS011;19221;42.656;21.156;2023-06-10T11:08:45;7.05;;;6.35;;
32198;SDS011;19221;42.656;21.156;2023-06-10T11:11:17;7.40;;;6.55;;
32198;SDS011;19221;42.656;21.156;2023-06-10T11:13:46;8.35;;;6.32;;
32198;SDS011;19221;42.656;21.156;2023-06-10T11:16:22;6.20;;;5.47;;
32198;SDS011;19221;42.656;21.156;2023-06-10T11:18:53;6.15;;;5.25;;
32198;SDS011;19221;42.656;21.156;2023-06-10T11:21:19;5.85;;;4.88;;
32198;SDS011;19221;42.656;21.156;2023-06-10T11:23:44;6.13;;;4.10;;
32198;SDS011;19221;42.656;21.156;2023-06-10T11:28:39;5.15;;;4.20;;
32198;SDS011;19221;42.656;21.156;2023-06-10T11:31:05;4.95;;;4.07;;
32198;SDS011;19221;42.656;21.156;2023-06-10T11:33:31;6.18;;;4.95;;
32198;SDS011;19221;42.656;21.156;2023-06-10T11:35:57;4.53;;;4.13;;
32198;SDS011;19221;42.656;21.156;2023-06-10T11:38:23;7.53;;;4.93;;
32198;SDS011;19221;42.656;21.156;2023-06-10T11:40:50;6.72;;;4.82;;
32198;SDS011;19221;42.656;21.156;2023-06-10T11:43:18;5.80;;;5.03;;
32198;SDS011;19221;42.656;21.156;2023-06-10T11:45:44;5.80;;;5.20;;
32198;SDS011;19221;42.656;21.156;2023-06-10T11:48:10;7.40;;;6.10;;
32198;SDS011;19221;42.656;21.156;2023-06-10T11:50:37;6.82;;;5.28;;
32198;SDS011;19221;42.656;21.156;2023-06-10T11:53:03;7.60;;;6.15;;
32198;SDS011;19221;42.656;21.156;2023-06-10T11:58:21;8.05;;;6.10;;
32198;SDS011;19221;42.656;21.156;2023-06-10T12:03:13;7.22;;;5.63;;
32198;SDS011;19221;42.656;21.156;2023-06-10T12:05:38;8.70;;;5.97;;
32198;SDS011;19221;42.656;21.156;2023-06-10T12:08:08;6.93;;;6.20;;
32198;SDS011;19221;42.656;21.156;2023-06-10T12:10:38;6.65;;;5.70;;
32198;SDS011;19221;42.656;21.156;2023-06-10T12:13:04;7.87;;;5.83;;
32198;SDS011;19221;42.656;21.156;2023-06-10T12:15:29;14.13;;;11.18;;
32198;SDS011;19221;42.656;21.156;2023-06-10T12:17:55;9.85;;;6.20;;
32198;SDS011;19221;42.656;21.156;2023-06-10T12:20:28;9.43;;;6.80;;
32198;SDS011;19221;42.656;21.156;2023-06-10T12:22:54;9.52;;;6.90;;
32198;SDS011;19221;42.656;21.156;2023-06-10T12:25:26;7.97;;;7.13;;
32198;SDS011;19221;42.656;21.156;2023-06-10T12:27:53;9.77;;;7.00;;
32198;SDS011;19221;42.656;21.156;2023-06-10T12:30:19;9.82;;;7.32;;
32198;SDS011;19221;42.656;21.156;2023-06-10T12:32:46;7.80;;;6.43;;
32198;SDS011;19221;42.656;21.156;2023-06-10T12:35:12;9.02;;;6.95;;
32198;SDS011;19221;42.656;21.156;2023-06-10T12:37:41;10.98;;;6.70;;
32198;SDS011;19221;42.656;21.156;2023-06-10T12:40:07;10.63;;;6.47;;
32198;SDS011;19221;42.656;21.156;2023-06-10T12:42:36;12.20;;;8.68;;
32198;SDS011;19221;42.656;21.156;2023-06-10T12:45:03;11.25;;;8.18;;
32198;SDS011;19221;42.656;21.156;2023-06-10T12:47:37;11.25;;;8.88;;
32198;SDS011;19221;42.656;21.156;2023-06-10T12:50:04;10.88;;;8.30;;
32198;SDS011;19221;42.656;21.156;2023-06-10T12:52:30;9.57;;;7.95;;
32198;SDS011;19221;42.656;21.156;2023-06-10T12:54:56;9.40;;;7.85;;
32198;SDS011;19221;42.656;21.156;2023-06-10T12:57:22;10.18;;;8.38;;
32198;SDS011;19221;42.656;21.156;2023-06-10T12:59:48;10.57;;;8.48;;
32198;SDS011;19221;42.656;21.156;2023-06-10T13:02:18;8.25;;;6.90;;
32198;SDS011;19221;42.656;21.156;2023-06-10T13:04:45;8.90;;;7.47;;
32198;SDS011;19221;42.656;21.156;2023-06-10T13:07:11;7.40;;;6.65;;
32198;SDS011;19221;42.656;21.156;2023-06-10T13:09:36;9.63;;;7.65;;
32198;SDS011;19221;42.656;21.156;2023-06-10T13:12:02;7.97;;;6.50;;
32198;SDS011;19221;42.656;21.156;2023-06-10T13:14:28;9.95;;;6.18;;
32198;SDS011;19221;42.656;21.156;2023-06-10T13:16:54;5.97;;;5.30;;
32198;SDS011;19221;42.656;21.156;2023-06-10T13:19:20;9.10;;;6.85;;
32198;SDS011;19221;42.656;21.156;2023-06-10T13:21:47;9.43;;;6.63;;
32198;SDS011;19221;42.656;21.156;2023-06-10T13:24:13;7.18;;;5.78;;
32198;SDS011;19221;42.656;21.156;2023-06-10T13:26:38;8.30;;;6.68;;
32198;SDS011;19221;42.656;21.156;2023-06-10T13:29:04;10.25;;;7.45;;
32198;SDS011;19221;42.656;21.156;2023-06-10T13:31:30;11.55;;;8.45;;
32198;SDS011;19221;42.656;21.156;2023-06-10T13:33:56;10.18;;;8.63;;
32198;SDS011;19221;42.656;21.156;2023-06-10T13:36:22;7.50;;;6.70;;
32198;SDS011;19221;42.656;21.156;2023-06-10T13:38:48;9.93;;;7.40;;
32198;SDS011;19221;42.656;21.156;2023-06-10T13:41:14;10.45;;;8.00;;
32198;SDS011;19221;42.656;21.156;2023-06-10T13:43:39;12.40;;;8.95;;
32198;SDS011;19221;42.656;21.156;2023-06-10T13:46:05;13.90;;;9.95;;
32198;SDS011;19221;42.656;21.156;2023-06-10T13:48:31;13.75;;;10.25;;
32198;SDS011;19221;42.656;21.156;2023-06-10T13:50:56;13.70;;;10.77;;
32198;SDS011;19221;42.656;21.156;2023-06-10T13:53:23;16.95;;;11.48;;
32198;SDS011;19221;42.656;21.156;2023-06-10T13:55:48;12.30;;;9.90;;
32198;SDS011;19221;42.656;21.156;2023-06-10T13:58:14;14.65;;;11.20;;
32198;SDS011;19221;42.656;21.156;2023-06-10T14:00:40;15.00;;;11.45;;
32198;SDS011;19221;42.656;21.156;2023-06-10T14:03:06;20.65;;;12.55;;
32198;SDS011;19221;42.656;21.156;2023-06-10T14:05:32;18.00;;;13.77;;
32198;SDS011;19221;42.656;21.156;2023-06-10T14:07:58;15.90;;;13.55;;
32198;SDS011;19221;42.656;21.156;2023-06-10T14:10:24;21.73;;;15.05;;
32198;SDS011;19221;42.656;21.156;2023-06-10T14:12:50;21.00;;;14.88;;
32198;SDS011;19221;42.656;21.156;2023-06-10T14:15:16;20.52;;;16.23;;
32198;SDS011;19221;42.656;21.156;2023-06-10T14:17:42;19.58;;;15.15;;
32198;SDS011;19221;42.656;21.156;2023-06-10T14:20:08;20.20;;;16.15;;
32198;SDS011;19221;42.656;21.156;2023-06-10T14:22:34;20.10;;;15.90;;
32198;SDS011;19221;42.656;21.156;2023-06-10T14:25:00;21.80;;;15.93;;
32198;SDS011;19221;42.656;21.156;2023-06-10T14:27:25;18.45;;;16.00;;
32198;SDS011;19221;42.656;21.156;2023-06-10T14:29:51;24.58;;;17.50;;
32198;SDS011;19221;42.656;21.156;2023-06-10T14:32:17;22.35;;;17.17;;
32198;SDS011;19221;42.656;21.156;2023-06-10T14:34:42;26.75;;;17.90;;
32198;SDS011;19221;42.656;21.156;2023-06-10T14:37:10;18.65;;;15.50;;